Time;durP1;ratioP1;P1;durP2;ratioP2;P2;SDS_P1;SDS_P2;PMS_P1;PMS_P2;Temp;Humidity;BMP_temperature;BMP_pressure;BME280_temperature;BME280_humidity;BME280_pressure;Samples;Min_cycle;Max_cycle;Signal;HPM_P1;HPM_P2
2021/11/17 02:26:33;;;;;;;22.67;9.20;;;8.50;99.90;;;;;;4989272;28;20243;-83
2021/11/17 02:29:26;;;;;;;13.70;8.73;;;8.60;99.90;;;;;;4991527;28;20231;-81
2021/11/17 02:31:58;;;;;;;15.07;7.73;;;8.60;99.90;;;;;;4992410;28;20238;-83
2021/11/17 02:34:42;;;;;;;19.43;9.50;;;8.60;99.90;;;;;;4987992;28;20223;-82
2021/11/17 02:37:27;;;;;;;19.20;9.33;;;8.60;99.90;;;;;;4990048;28;20195;-83
2021/11/17 02:40:18;;;;;;;8.73;5.10;;;8.70;99.90;;;;;;4959583;28;20203;-81
2021/11/17 02:43:26;;;;;;;23.47;9.37;;;8.60;99.90;;;;;;4991328;28;20215;-83
2021/11/17 02:45:58;;;;;;;22.40;9.67;;;8.70;99.90;;;;;;4991761;28;20235;-83
2021/11/17 02:48:24;;;;;;;19.23;8.93;;;8.70;99.90;;;;;;4993892;28;20700;-83
2021/11/17 02:51:06;;;;;;;14.77;6.37;;;8.70;99.90;;;;;;4992128;28;20238;-83
2021/11/17 02:53:35;;;;;;;19.23;12.27;;;8.70;99.90;;;;;;4977921;28;20333;-83
2021/11/17 02:56:03;;;;;;;23.50;9.10;;;8.70;99.90;;;;;;4991188;28;20372;-82
2021/11/17 02:58:47;;;;;;;21.73;11.40;;;8.80;99.90;;;;;;4991786;28;20615;-82
2021/11/17 03:01:25;;;;;;;24.77;9.03;;;8.80;99.90;;;;;;4991908;28;20761;-83
2021/11/17 03:03:57;;;;;;;19.57;8.37;;;8.80;99.90;;;;;;4990108;28;20227;-82
2021/11/17 03:06:29;;;;;;;13.07;7.37;;;8.80;99.90;;;;;;4973965;28;20207;-83
2021/11/17 03:09:32;;;;;;;20.53;9.57;;;8.80;99.90;;;;;;4991031;28;20246;-84
2021/11/17 03:12:11;;;;;;;14.37;8.13;;;8.90;99.90;;;;;;4988728;28;20307;-84
2021/11/17 03:15:15;;;;;;;18.63;9.77;;;8.90;99.90;;;;;;4975322;28;20220;-84
2021/11/17 03:17:59;;;;;;;19.43;8.67;;;8.90;99.90;;;;;;4965047;28;20234;-82
2021/11/17 03:20:28;;;;;;;13.27;8.30;;;8.90;99.90;;;;;;4987092;28;20289;-83
2021/11/17 03:23:06;;;;;;;29.40;8.50;;;8.90;99.90;;;;;;4989607;28;20277;-83
2021/11/17 03:25:47;;;;;;;12.77;7.57;;;8.90;99.90;;;;;;4965993;28;20689;-85
2021/11/17 03:28:22;;;;;;;14.93;7.67;;;8.90;99.90;;;;;;4986731;28;20224;-84
2021/11/17 03:31:15;;;;;;;20.93;7.67;;;8.90;99.90;;;;;;4994185;28;20254;-84
2021/11/17 03:33:48;;;;;;;15.57;7.43;;;8.90;99.90;;;;;;4989951;28;20605;-85
2021/11/17 03:36:25;;;;;;;16.03;8.60;;;9.00;99.90;;;;;;4992230;28;20222;-85
2021/11/17 03:39:10;;;;;;;20.93;9.27;;;8.90;99.90;;;;;;4995691;28;20238;-83
2021/11/17 03:41:57;;;;;;;28.10;10.20;;;9.00;99.90;;;;;;4993484;28;20227;-82
2021/11/17 03:44:38;;;;;;;17.37;8.83;;;9.00;99.90;;;;;;4994858;28;20215;-82
2021/11/17 03:47:07;;;;;;;13.70;8.43;;;9.00;99.90;;;;;;4984449;28;20228;-84
2021/11/17 03:49:57;;;;;;;17.17;9.87;;;9.10;99.90;;;;;;4993031;28;20357;-82
2021/11/17 03:52:41;;;;;;;15.50;8.93;;;9.10;99.90;;;;;;4984544;28;20231;-84
2021/11/17 03:55:22;;;;;;;16.53;8.37;;;9.10;99.90;;;;;;4992410;28;20195;-83
2021/11/17 03:58:17;;;;;;;23.23;10.77;;;9.10;99.90;;;;;;4978484;28;20266;-84
2021/11/17 04:01:19;;;;;;;26.03;10.33;;;9.00;99.90;;;;;;4986912;28;20315;-82
2021/11/17 04:03:54;;;;;;;19.97;8.57;;;9.10;99.90;;;;;;4953494;28;20211;-84
2021/11/17 04:06:47;;;;;;;18.07;8.40;;;9.10;99.90;;;;;;5008271;28;20988;-82
2021/11/17 04:09:44;;;;;;;15.43;8.43;;;9.10;99.90;;;;;;4960783;28;20326;-83
2021/11/17 04:12:19;;;;;;;24.10;9.27;;;9.20;99.90;;;;;;4990441;28;20300;-83
2021/11/17 04:14:51;;;;;;;22.67;8.17;;;9.10;99.90;;;;;;4975123;28;20228;-81
2021/11/17 04:17:41;;;;;;;19.77;8.37;;;9.20;99.90;;;;;;4992614;28;20220;-81
2021/11/17 04:20:19;;;;;;;12.93;5.90;;;9.20;99.90;;;;;;5000701;28;20275;-83
2021/11/17 04:23:23;;;;;;;14.90;8.13;;;9.20;99.90;;;;;;4992305;28;20270;-81
2021/11/17 04:26:07;;;;;;;21.50;9.03;;;9.20;99.90;;;;;;4993851;28;20220;-79
2021/11/17 04:29:07;;;;;;;22.83;9.47;;;9.20;99.90;;;;;;4992458;28;20231;-85
2021/11/17 04:32:02;;;;;;;21.13;8.87;;;9.20;99.90;;;;;;4994063;28;20234;-83
2021/11/17 04:34:50;;;;;;;18.60;9.80;;;9.30;99.90;;;;;;4992830;28;20220;-83
2021/11/17 04:37:58;;;;;;;11.83;6.93;;;9.20;99.90;;;;;;4971764;28;20820;-82
2021/11/17 04:40:52;;;;;;;23.40;10.57;;;9.30;99.90;;;;;;4946782;28;20258;-83
2021/11/17 04:43:36;;;;;;;18.43;8.23;;;9.30;99.90;;;;;;4986616;28;20315;-84
2021/11/17 04:46:21;;;;;;;23.60;9.87;;;9.30;99.90;;;;;;4993647;28;20407;-83
2021/11/17 04:49:09;;;;;;;26.43;10.87;;;9.30;99.90;;;;;;4992950;28;20574;-83
2021/11/17 04:51:47;;;;;;;20.07;9.63;;;9.40;99.90;;;;;;4989772;28;20260;-83
2021/11/17 04:54:15;;;;;;;17.77;7.47;;;9.30;99.90;;;;;;4990128;28;20211;-83
2021/11/17 04:57:15;;;;;;;15.50;9.13;;;9.30;99.90;;;;;;4989886;28;20220;-83
2021/11/17 04:59:51;;;;;;;23.10;11.13;;;9.40;99.90;;;;;;4994957;28;20223;-83
2021/11/17 05:02:32;;;;;;;17.60;9.83;;;9.40;99.90;;;;;;4989487;28;20726;-82
2021/11/17 05:05:11;;;;;;;21.17;9.37;;;9.40;99.90;;;;;;4988397;28;20318;-84
2021/11/17 05:07:59;;;;;;;15.87;10.07;;;9.40;99.90;;;;;;4970277;28;20306;-82
2021/11/17 05:10:40;;;;;;;16.30;8.77;;;9.40;99.90;;;;;;4999405;28;20311;-83
2021/11/17 05:13:12;;;;;;;21.47;8.93;;;9.40;99.90;;;;;;4991194;28;20199;-83
2021/11/17 05:15:41;;;;;;;22.80;11.13;;;9.40;99.90;;;;;;4993569;28;20210;-84
2021/11/17 05:18:48;;;;;;;17.00;9.53;;;9.50;99.90;;;;;;4993044;28;20266;-84
2021/11/17 05:21:31;;;;;;;17.13;8.27;;;9.50;99.90;;;;;;4973348;28;20286;-83
2021/11/17 05:24:06;;;;;;;11.20;6.87;;;9.50;99.90;;;;;;4977126;28;20273;-84
2021/11/17 05:26:57;;;;;;;26.10;9.83;;;9.50;99.90;;;;;;4995518;28;20226;-82
2021/11/17 05:29:26;;;;;;;13.60;7.27;;;9.50;99.90;;;;;;4989049;28;20239;-82
2021/11/17 05:32:33;;;;;;;16.33;9.27;;;9.50;99.90;;;;;;4992976;28;20227;-82
2021/11/17 05:35:00;;;;;;;13.20;8.30;;;9.50;99.90;;;;;;4976142;28;20241;-82
2021/11/17 05:37:53;;;;;;;21.33;8.93;;;9.60;99.90;;;;;;4989679;28;20232;-81
2021/11/17 05:40:39;;;;;;;15.87;7.90;;;9.60;99.90;;;;;;4993645;28;20546;-84
2021/11/17 05:43:30;;;;;;;22.80;10.97;;;9.60;99.90;;;;;;4991143;28;20202;-84
2021/11/17 05:46:05;;;;;;;14.30;8.40;;;9.60;99.90;;;;;;4987392;28;20184;-80
2021/11/17 05:48:43;;;;;;;12.57;5.93;;;9.70;99.90;;;;;;4993702;28;20206;-83
2021/11/17 05:51:30;;;;;;;22.97;8.43;;;9.70;99.90;;;;;;4972101;28;20227;-83
2021/11/17 05:54:15;;;;;;;17.37;8.67;;;9.70;99.90;;;;;;5010090;28;21142;-83
2021/11/17 05:56:52;;;;;;;25.03;12.03;;;9.80;99.90;;;;;;4996393;28;20233;-83
2021/11/17 05:59:27;;;;;;;18.87;10.67;;;9.80;99.90;;;;;;4993797;28;20273;-82
2021/11/17 06:01:59;;;;;;;18.17;10.23;;;9.80;99.90;;;;;;4974699;28;20239;-83
2021/11/17 06:04:25;;;;;;;16.53;9.83;;;9.80;99.90;;;;;;4992115;28;20223;-81
2021/11/17 06:06:50;;;;;;;15.37;8.67;;;9.80;99.90;;;;;;4992167;28;20278;-81
2021/11/17 06:09:17;;;;;;;18.23;8.90;;;9.90;99.90;;;;;;4994203;28;20266;-80
2021/11/17 06:11:52;;;;;;;11.73;5.53;;;9.80;99.90;;;;;;4991085;28;20625;-81
2021/11/17 06:14:23;;;;;;;12.47;9.97;;;9.80;99.90;;;;;;4989098;28;20221;-84
2021/11/17 06:16:56;;;;;;;28.17;10.37;;;9.90;99.90;;;;;;4993783;28;20216;-82
2021/11/17 06:19:24;;;;;;;20.97;8.60;;;9.90;99.90;;;;;;4991744;28;20236;-84
2021/11/17 06:21:52;;;;;;;11.10;8.57;;;9.90;99.90;;;;;;4992444;28;20349;-84
2021/11/17 06:24:20;;;;;;;23.27;10.30;;;10.00;99.90;;;;;;4994504;28;20708;-84
2021/11/17 06:26:47;;;;;;;18.67;10.17;;;9.90;99.90;;;;;;4993423;28;20227;-82
2021/11/17 06:29:35;;;;;;;18.37;10.60;;;10.00;99.90;;;;;;4992147;28;20297;-84
2021/11/17 06:32:02;;;;;;;13.53;9.23;;;10.00;99.90;;;;;;4989615;28;20227;-81
2021/11/17 06:34:35;;;;;;;17.20;8.70;;;10.00;99.90;;;;;;4988938;28;20231;-84
2021/11/17 06:37:05;;;;;;;15.47;9.07;;;10.00;99.90;;;;;;4988825;28;20188;-83
2021/11/17 06:39:32;;;;;;;17.13;9.10;;;10.00;99.90;;;;;;4991878;28;20222;-82
2021/11/17 06:42:00;;;;;;;13.07;8.57;;;10.00;99.90;;;;;;4987760;28;20220;-83
2021/11/17 06:44:26;;;;;;;18.03;9.10;;;10.00;99.90;;;;;;4993410;28;20243;-81
2021/11/17 06:46:52;;;;;;;29.10;10.60;;;10.00;99.90;;;;;;4993302;28;20772;-84
2021/11/17 06:49:18;;;;;;;18.93;8.53;;;10.00;99.90;;;;;;4990396;28;20235;-81
2021/11/17 06:51:44;;;;;;;17.40;10.93;;;10.00;99.90;;;;;;4990506;28;20199;-82
2021/11/17 06:54:10;;;;;;;22.37;11.83;;;10.00;99.90;;;;;;4990930;28;20215;-82
2021/11/17 06:56:36;;;;;;;23.50;11.03;;;10.00;99.90;;;;;;4989652;28;20218;-82
2021/11/17 06:59:02;;;;;;;25.90;9.23;;;10.00;99.90;;;;;;4984091;28;20214;-84
2021/11/17 07:01:28;;;;;;;20.57;10.27;;;10.10;99.90;;;;;;5007869;28;20231;-84
2021/11/17 07:03:55;;;;;;;15.03;7.37;;;10.10;99.90;;;;;;4994468;28;20246;-83
2021/11/17 07:06:21;;;;;;;16.63;9.33;;;10.10;99.90;;;;;;4994784;28;20303;-84
2021/11/17 07:08:46;;;;;;;21.03;10.33;;;10.10;99.90;;;;;;4992942;28;21156;-82
2021/11/17 07:11:12;;;;;;;20.70;12.00;;;10.20;99.90;;;;;;4979645;28;20306;-81
2021/11/17 07:13:38;;;;;;;17.50;11.23;;;10.10;99.90;;;;;;4993901;28;20219;-85
2021/11/17 07:16:05;;;;;;;17.10;9.57;;;10.20;99.90;;;;;;4978492;28;20254;-83
2021/11/17 07:18:32;;;;;;;24.30;9.10;;;10.20;99.90;;;;;;4996005;28;20200;-82
2021/11/17 07:20:59;;;;;;;15.37;9.73;;;10.30;99.90;;;;;;4995153;28;20228;-81
2021/11/17 07:23:25;;;;;;;15.87;8.30;;;10.30;99.90;;;;;;4995277;28;20250;-84
2021/11/17 07:25:51;;;;;;;20.50;10.93;;;10.30;99.90;;;;;;4998529;28;20220;-83
2021/11/17 07:28:17;;;;;;;27.63;11.23;;;10.40;99.90;;;;;;4994986;28;20285;-84
2021/11/17 07:30:43;;;;;;;19.23;10.17;;;10.40;99.90;;;;;;4998993;28;20219;-85
2021/11/17 07:33:09;;;;;;;29.97;10.23;;;10.40;99.90;;;;;;4994240;28;20294;-84
2021/11/17 07:35:38;;;;;;;20.77;10.50;;;10.50;99.90;;;;;;4996363;28;20219;-82
2021/11/17 07:38:07;;;;;;;16.70;9.37;;;10.50;99.90;;;;;;4996441;28;20215;-83
2021/11/17 07:40:40;;;;;;;15.20;8.00;;;10.50;99.90;;;;;;5008388;28;20204;-82
2021/11/17 07:43:09;;;;;;;13.90;7.87;;;10.60;99.90;;;;;;4991774;28;20200;-84
2021/11/17 07:45:35;;;;;;;16.50;7.80;;;10.60;99.90;;;;;;5003883;28;20244;-85
2021/11/17 07:48:02;;;;;;;18.90;10.07;;;10.70;99.90;;;;;;4985866;28;20218;-81
2021/11/17 07:50:28;;;;;;;16.23;8.53;;;10.70;99.90;;;;;;4996077;28;20227;-83
2021/11/17 07:52:54;;;;;;;19.73;8.57;;;10.70;99.90;;;;;;4986280;28;20224;-82
2021/11/17 07:55:20;;;;;;;14.07;8.03;;;10.70;99.90;;;;;;4996651;28;20219;-85
2021/11/17 07:57:49;;;;;;;14.70;7.70;;;10.70;99.90;;;;;;4994182;28;20195;-85
2021/11/17 08:00:22;;;;;;;20.90;7.30;;;10.70;99.90;;;;;;4995595;28;20223;-84
2021/11/17 08:02:50;;;;;;;13.67;7.57;;;10.70;99.90;;;;;;4993093;28;20310;-83
2021/11/17 08:05:17;;;;;;;15.73;7.00;;;10.70;99.90;;;;;;4995824;28;20238;-82
2021/11/17 08:07:43;;;;;;;15.27;7.67;;;10.80;99.90;;;;;;4994188;28;20243;-80
2021/11/17 08:10:19;;;;;;;14.07;8.87;;;10.80;99.90;;;;;;4991544;28;20227;-82
2021/11/17 08:12:44;;;;;;;8.53;6.83;;;10.90;99.90;;;;;;4986674;28;20399;-85
2021/11/17 08:15:11;;;;;;;10.27;5.37;;;10.90;99.90;;;;;;4996972;28;20219;-82
2021/11/17 08:17:41;;;;;;;21.73;7.17;;;11.00;99.90;;;;;;4988031;28;20743;-82
2021/11/17 08:20:12;;;;;;;46.30;7.50;;;11.00;99.90;;;;;;4996458;28;20615;-84
2021/11/17 08:22:39;;;;;;;10.10;4.57;;;11.00;99.90;;;;;;4994486;28;20230;-84
2021/11/17 08:25:05;;;;;;;3.93;3.47;;;11.10;99.90;;;;;;4981613;28;20235;-85
2021/11/17 08:27:31;;;;;;;5.47;2.33;;;11.00;99.90;;;;;;5006765;28;20192;-82
2021/11/17 08:29:58;;;;;;;5.77;1.80;;;11.00;99.90;;;;;;5006877;28;20250;-85
2021/11/17 08:32:24;;;;;;;5.07;1.23;;;10.90;99.90;;;;;;4996822;28;20234;-87
2021/11/17 08:34:51;;;;;;;1.90;1.10;;;10.80;99.90;;;;;;4994069;28;20230;-85
2021/11/17 08:37:18;;;;;;;0.97;0.50;;;10.80;99.90;;;;;;4994522;28;20303;-85
2021/11/17 08:39:46;;;;;;;4.90;0.87;;;10.80;99.90;;;;;;4976410;28;20198;-86
2021/11/17 08:42:14;;;;;;;2.57;2.13;;;10.90;99.90;;;;;;4992723;28;20224;-86
2021/11/17 08:44:40;;;;;;;1.87;1.43;;;10.90;99.90;;;;;;4993266;28;20215;-86
2021/11/17 08:47:12;;;;;;;1.27;1.17;;;10.90;99.90;;;;;;4978031;28;20219;-88
2021/11/17 08:49:38;;;;;;;0.47;0.40;;;11.00;99.90;;;;;;4994468;28;20246;-85
2021/11/17 08:52:06;;;;;;;13.30;2.00;;;11.10;99.90;;;;;;4994848;28;20206;-85
2021/11/17 08:54:33;;;;;;;7.53;1.60;;;11.10;99.90;;;;;;4978206;28;20204;-86
2021/11/17 08:57:00;;;;;;;2.10;1.10;;;11.10;99.90;;;;;;4992295;28;20222;-85
2021/11/17 08:59:28;;;;;;;1.53;1.13;;;11.20;99.90;;;;;;4986452;28;20223;-86
2021/11/17 09:01:57;;;;;;;8.00;1.17;;;11.20;99.90;;;;;;4992803;28;20220;-85
2021/11/17 09:04:23;;;;;;;17.17;2.33;;;11.20;99.90;;;;;;5008795;28;20231;-84
2021/11/17 09:06:49;;;;;;;4.30;1.10;;;11.30;99.90;;;;;;4995269;28;20593;-85
2021/11/17 09:09:17;;;;;;;1.33;0.80;;;11.30;99.90;;;;;;4991835;28;20727;-85
2021/11/17 09:11:42;;;;;;;1.43;0.57;;;11.30;99.90;;;;;;4993784;28;20223;-84
2021/11/17 09:14:08;;;;;;;11.67;1.17;;;11.30;99.90;;;;;;4992023;28;20220;-82
2021/11/17 09:16:35;;;;;;;9.97;1.57;;;11.30;99.90;;;;;;4992583;28;20239;-83
2021/11/17 09:19:03;;;;;;;3.50;1.50;;;11.30;99.90;;;;;;4975522;28;20248;-84
2021/11/17 09:21:33;;;;;;;1.97;1.23;;;11.30;99.90;;;;;;4995995;28;20202;-84
2021/11/17 09:24:01;;;;;;;8.30;1.87;;;11.30;99.90;;;;;;4993972;28;20228;-83
2021/11/17 09:26:27;;;;;;;1.70;0.83;;;11.20;99.90;;;;;;4995030;28;20234;-84
2021/11/17 09:28:55;;;;;;;1.47;0.50;;;11.10;99.90;;;;;;4992013;28;20273;-84
2021/11/17 09:31:22;;;;;;;0.20;0.20;;;11.00;99.90;;;;;;4992226;28;20351;-84
2021/11/17 09:33:48;;;;;;;5.73;1.10;;;11.00;99.90;;;;;;4995308;28;20207;-83
2021/11/17 09:36:17;;;;;;;5.53;1.40;;;11.00;99.90;;;;;;4994971;28;20216;-85
2021/11/17 09:38:43;;;;;;;9.80;1.53;;;11.10;99.90;;;;;;4992030;28;20216;-85
2021/11/17 09:41:15;;;;;;;10.07;1.53;;;11.30;99.90;;;;;;4994389;28;20211;-84
2021/11/17 09:43:47;;;;;;;1.50;1.17;;;11.30;99.90;;;;;;4991994;28;20784;-83
2021/11/17 09:46:24;;;;;;;6.10;1.57;;;11.40;99.90;;;;;;4989756;28;20242;-82
2021/11/17 09:48:54;;;;;;;2.47;2.27;;;11.50;99.90;;;;;;5004140;28;20235;-83
2021/11/17 09:51:32;;;;;;;9.40;1.03;;;11.60;99.90;;;;;;4983548;28;20700;-83
2021/11/17 09:54:39;;;;;;;1.33;0.87;;;11.60;99.90;;;;;;4995034;28;20223;-83
2021/11/17 09:57:25;;;;;;;6.47;1.17;;;11.70;99.90;;;;;;4993327;28;20215;-85
2021/11/17 10:00:01;;;;;;;1.60;0.37;;;11.70;99.90;;;;;;4993935;28;20266;-84
2021/11/17 10:02:31;;;;;;;0.67;0.50;;;11.80;99.90;;;;;;4991653;28;20295;-86
2021/11/17 10:05:03;;;;;;;4.03;0.93;;;11.80;99.90;;;;;;4992809;28;20223;-83
2021/11/17 10:13:45;;;;;;;17.10;1.60;;;11.90;99.90;;;;;;4995168;28;20220;-83
2021/11/17 10:16:11;;;;;;;0.10;0.10;;;11.90;99.90;;;;;;4992764;28;20310;-84
2021/11/17 10:18:47;;;;;;;1.73;1.33;;;11.90;99.90;;;;;;4994177;28;20196;-84
2021/11/17 10:21:22;;;;;;;1.43;1.00;;;11.90;99.90;;;;;;4984840;28;20234;-83
2021/11/17 10:24:03;;;;;;;15.20;1.03;;;11.90;99.90;;;;;;4991828;28;20231;-84
2021/11/17 10:26:29;;;;;;;7.93;0.70;;;11.90;99.90;;;;;;4991897;28;20722;-86
2021/11/17 10:28:58;;;;;;;0.53;0.53;;;12.00;99.90;;;;;;4994377;28;20288;-85
2021/11/17 10:31:26;;;;;;;1.87;0.70;;;12.00;99.90;;;;;;4997069;28;20226;-86
2021/11/17 10:34:24;;;;;;;4.33;0.70;;;12.00;99.90;;;;;;4991848;28;20272;-87
2021/11/17 10:37:12;;;;;;;3.80;0.67;;;12.00;99.90;;;;;;4991262;28;20200;-85
2021/11/17 10:39:38;;;;;;;5.27;1.53;;;12.00;99.90;;;;;;4996635;28;20215;-87
2021/11/17 10:42:09;;;;;;;7.10;0.60;;;12.10;99.90;;;;;;5017298;28;20311;-85
2021/11/17 10:44:44;;;;;;;4.97;1.30;;;12.10;99.90;;;;;;5015322;28;20222;-84
2021/11/17 10:47:24;;;;;;;6.33;0.77;;;12.10;99.90;;;;;;4998097;28;20230;-85
2021/11/17 10:50:06;;;;;;;0.93;0.40;;;12.10;99.90;;;;;;4989798;28;20231;-84
2021/11/17 10:52:50;;;;;;;6.20;1.13;;;12.10;99.90;;;;;;4993886;28;20238;-85
2021/11/17 10:55:33;;;;;;;3.17;0.77;;;12.10;99.90;;;;;;4995826;28;20229;-84
2021/11/17 10:58:04;;;;;;;5.53;1.37;;;12.10;99.90;;;;;;4994160;28;20608;-83
2021/11/17 11:00:39;;;;;;;8.40;1.87;;;12.10;99.90;;;;;;4996603;28;20211;-85
2021/11/17 11:03:09;;;;;;;3.27;0.87;;;12.10;99.90;;;;;;4996749;28;20230;-84
2021/11/17 11:05:44;;;;;;;2.43;0.53;;;12.20;99.90;;;;;;4996754;28;20219;-84
2021/11/17 11:08:24;;;;;;;0.40;0.27;;;12.10;99.90;;;;;;4987750;28;20239;-84
2021/11/17 11:10:55;;;;;;;0.30;0.27;;;12.10;99.90;;;;;;4999757;28;20226;-84
2021/11/17 11:13:31;;;;;;;3.63;1.23;;;12.20;99.90;;;;;;4996081;28;20678;-86
2021/11/17 11:16:01;;;;;;;1.80;0.90;;;12.20;99.90;;;;;;4996691;28;20230;-82
2021/11/17 11:18:43;;;;;;;1.03;0.73;;;12.20;99.90;;;;;;4998057;28;20196;-85
2021/11/17 11:21:10;;;;;;;24.93;2.13;;;12.20;99.90;;;;;;4997995;28;20289;-84
2021/11/17 11:23:37;;;;;;;4.73;1.23;;;12.30;99.90;;;;;;4987950;28;20275;-82
2021/11/17 11:26:29;;;;;;;4.33;1.03;;;12.30;99.90;;;;;;4995653;28;20224;-83
2021/11/17 11:29:00;;;;;;;4.60;0.73;;;12.30;99.90;;;;;;4990261;28;20904;-83
2021/11/17 11:31:34;;;;;;;2.13;0.60;;;12.30;99.90;;;;;;4997138;28;20230;-83
2021/11/17 11:34:00;;;;;;;5.20;0.90;;;12.40;99.90;;;;;;4996660;28;20180;-82
2021/11/17 11:36:32;;;;;;;2.67;0.40;;;12.40;99.90;;;;;;4998358;28;20589;-82
2021/11/17 11:38:57;;;;;;;1.77;1.10;;;12.50;99.90;;;;;;4997080;28;20282;-83
2021/11/17 11:41:43;;;;;;;1.03;0.83;;;12.50;99.90;;;;;;4995096;28;20227;-81
2021/11/17 11:44:18;;;;;;;1.93;1.83;;;12.40;99.90;;;;;;4988064;28;20234;-84
2021/11/17 11:46:54;;;;;;;7.87;0.87;;;12.30;99.90;;;;;;4995321;28;20227;-83
2021/11/17 11:49:38;;;;;;;0.20;0.20;;;12.30;99.90;;;;;;4995416;28;20305;-82
2021/11/17 11:52:23;;;;;;;0.53;0.53;;;12.30;99.90;;;;;;5008401;28;20649;-84
2021/11/17 11:54:53;;;;;;;2.90;1.13;;;12.20;99.90;;;;;;5002363;28;20196;-82
2021/11/17 11:57:24;;;;;;;2.20;1.10;;;12.20;99.90;;;;;;4991042;28;20232;-83
2021/11/17 12:00:15;;;;;;;1.50;0.53;;;12.20;99.90;;;;;;4995284;28;20349;-81
2021/11/17 12:03:01;;;;;;;5.70;0.80;;;12.20;99.90;;;;;;4986553;28;20223;-80
2021/11/17 12:05:39;;;;;;;4.03;1.10;;;12.20;99.90;;;;;;5002746;28;20237;-83
2021/11/17 12:08:29;;;;;;;0.30;0.30;;;12.10;99.90;;;;;;4994169;28;20227;-82
2021/11/17 12:11:01;;;;;;;4.20;1.17;;;12.10;99.90;;;;;;4994028;28;20254;-81
2021/11/17 12:13:29;;;;;;;3.13;0.93;;;12.10;99.90;;;;;;4999846;28;20616;-81
2021/11/17 12:15:58;;;;;;;4.63;1.13;;;12.10;99.90;;;;;;4991853;28;20192;-80
2021/11/17 12:18:25;;;;;;;6.93;1.67;;;12.20;99.90;;;;;;4993926;28;20262;-82
2021/11/17 12:21:00;;;;;;;0.70;0.70;;;12.10;99.90;;;;;;4989001;28;20242;-82
2021/11/17 12:23:30;;;;;;;6.33;1.60;;;12.20;99.90;;;;;;4989993;28;20223;-83
2021/11/17 12:26:10;;;;;;;3.90;0.87;;;12.20;99.90;;;;;;4991546;28;20295;-81
2021/11/17 12:28:48;;;;;;;7.67;0.70;;;12.20;99.90;;;;;;4994398;28;20231;-80
2021/11/17 12:31:27;;;;;;;1.23;0.57;;;12.20;99.90;;;;;;4993845;28;20231;-82
2021/11/17 12:34:14;;;;;;;0.40;0.40;;;12.30;99.90;;;;;;4994151;28;20199;-82
2021/11/17 12:37:15;;;;;;;1.53;0.60;;;12.50;99.90;;;;;;4994043;28;20172;-81
2021/11/17 12:39:51;;;;;;;3.07;0.87;;;12.60;99.90;;;;;;4966600;28;20315;-82
2021/11/17 12:42:34;;;;;;;0.10;0.10;;;12.60;99.90;;;;;;4993743;28;20219;-83
2021/11/17 12:45:11;;;;;;;4.50;1.23;;;12.60;99.90;;;;;;4995043;28;20581;-82
2021/11/17 12:47:57;;;;;;;0.37;0.37;;;12.80;99.90;;;;;;4994317;28;20219;-82
2021/11/17 12:50:32;;;;;;;4.73;1.10;;;12.80;99.90;;;;;;4998531;28;20242;-82
2021/11/17 12:53:20;;;;;;;0.87;0.70;;;12.80;99.90;;;;;;5008300;28;20218;-82
2021/11/17 12:55:55;;;;;;;1.33;0.70;;;12.80;99.90;;;;;;4984019;28;20219;-81
2021/11/17 12:58:26;;;;;;;7.23;1.30;;;12.80;99.90;;;;;;5000204;28;20269;-83
2021/11/17 13:01:09;;;;;;;5.83;0.63;;;13.00;99.90;;;;;;5006916;28;20246;-81
2021/11/17 13:03:47;;;;;;;0.13;0.13;;;13.10;99.90;;;;;;5015645;28;20192;-81
2021/11/17 13:06:46;;;;;;;0.30;0.23;;;12.60;99.90;;;;;;4994005;28;20219;-83
2021/11/17 13:09:23;;;;;;;0.63;0.50;;;11.90;99.90;;;;;;4993299;28;20227;-83
2021/11/17 13:12:15;;;;;;;0.00;0.00;;;11.80;99.90;;;;;;4993148;28;20227;-84
2021/11/17 13:14:44;;;;;;;0.47;0.47;;;11.60;99.90;;;;;;4993173;28;20214;-82
2021/11/17 13:17:21;;;;;;;2.63;0.67;;;11.70;99.90;;;;;;4992050;28;20220;-81
2021/11/17 13:19:56;;;;;;;4.40;1.17;;;11.70;99.90;;;;;;4986744;28;20347;-82
2021/11/17 13:22:28;;;;;;;0.53;0.40;;;11.70;99.90;;;;;;4989467;28;20226;-81
2021/11/17 13:25:13;;;;;;;2.90;0.60;;;11.60;99.90;;;;;;4990319;28;20195;-82
2021/11/17 13:27:47;;;;;;;0.57;0.57;;;11.80;99.90;;;;;;4994061;28;20394;-81
2021/11/17 13:30:28;;;;;;;4.70;1.20;;;11.80;99.90;;;;;;4992319;28;20454;-84
2021/11/17 13:32:57;;;;;;;0.67;0.67;;;11.70;99.90;;;;;;4992229;28;20322;-85
2021/11/17 13:35:27;;;;;;;0.50;0.40;;;11.70;99.90;;;;;;4990322;28;20223;-84
2021/11/17 13:38:20;;;;;;;1.27;0.53;;;11.70;99.90;;;;;;4994480;28;20211;-85
2021/11/17 13:40:49;;;;;;;1.80;0.87;;;11.70;99.90;;;;;;4991891;28;20257;-84
2021/11/17 13:43:16;;;;;;;5.07;0.50;;;11.70;99.90;;;;;;4992022;28;20227;-83
2021/11/17 13:45:45;;;;;;;0.37;0.17;;;11.70;99.90;;;;;;4991496;28;20191;-84
2021/11/17 13:48:14;;;;;;;1.50;0.60;;;11.70;99.90;;;;;;4991823;28;20215;-83
2021/11/17 13:50:40;;;;;;;3.70;0.40;;;11.70;99.90;;;;;;4992543;28;20255;-82
2021/11/17 13:53:09;;;;;;;0.70;0.50;;;11.80;99.90;;;;;;4992506;28;20282;-81
2021/11/17 13:55:38;;;;;;;2.10;0.23;;;11.70;99.90;;;;;;4993411;28;20225;-84
2021/11/17 13:58:05;;;;;;;3.23;0.30;;;11.70;99.90;;;;;;4993178;28;20210;-83
2021/11/17 14:00:31;;;;;;;5.70;1.70;;;11.40;99.90;;;;;;4992727;28;20261;-83
2021/11/17 14:02:58;;;;;;;1.03;0.60;;;11.30;99.90;;;;;;4976042;28;20602;-84
2021/11/17 14:05:25;;;;;;;1.43;0.40;;;11.30;99.90;;;;;;4994677;28;20242;-84
2021/11/17 14:07:51;;;;;;;1.80;1.00;;;11.20;99.90;;;;;;4992282;28;20231;-84
2021/11/17 14:10:19;;;;;;;3.93;0.93;;;11.20;99.90;;;;;;4992001;28;20232;-83
2021/11/17 14:12:49;;;;;;;6.10;1.63;;;11.20;99.90;;;;;;4975783;28;20286;-85
2021/11/17 14:15:15;;;;;;;0.20;0.20;;;11.10;99.90;;;;;;5009941;28;20326;-85
2021/11/17 14:17:41;;;;;;;2.87;0.73;;;11.00;99.90;;;;;;4994662;28;20681;-84
2021/11/17 14:20:07;;;;;;;6.30;1.60;;;11.00;99.90;;;;;;4992783;28;20235;-86
2021/11/17 14:22:33;;;;;;;0.60;0.60;;;11.00;99.90;;;;;;4993700;28;20231;-84
2021/11/17 14:25:08;;;;;;;1.83;0.87;;;11.00;99.90;;;;;;4991617;28;20213;-84
2021/11/17 14:27:37;;;;;;;5.63;0.67;;;11.00;99.90;;;;;;4978512;28;20253;-84
2021/11/17 14:30:10;;;;;;;3.13;0.77;;;11.00;99.90;;;;;;4991194;28;20305;-83
2021/11/17 14:32:42;;;;;;;5.10;1.30;;;11.00;99.90;;;;;;4997446;28;20219;-82
2021/11/17 14:35:10;;;;;;;0.80;0.80;;;10.90;99.90;;;;;;4991969;28;20227;-83
2021/11/17 14:37:36;;;;;;;0.93;0.53;;;10.90;99.90;;;;;;4989006;28;20251;-83
2021/11/17 14:40:04;;;;;;;2.13;0.80;;;10.80;99.90;;;;;;4989288;28;20287;-82
2021/11/17 14:42:30;;;;;;;0.37;0.37;;;10.70;99.90;;;;;;4993627;28;20243;-83
2021/11/17 14:44:56;;;;;;;1.23;0.63;;;10.70;99.90;;;;;;4991855;28;20222;-85
2021/11/17 14:47:21;;;;;;;1.57;0.60;;;10.60;99.90;;;;;;5000827;28;20234;-84
2021/11/17 14:49:48;;;;;;;4.63;1.27;;;10.60;99.90;;;;;;4984692;28;20323;-84
2021/11/17 14:52:20;;;;;;;4.37;0.43;;;10.50;99.90;;;;;;4975069;28;21019;-84
2021/11/17 14:54:46;;;;;;;3.57;3.27;;;10.50;99.90;;;;;;4993035;28;20202;-85
2021/11/17 14:57:12;;;;;;;1.23;0.73;;;10.60;99.90;;;;;;4988355;28;20289;-83
2021/11/17 14:59:37;;;;;;;0.93;0.47;;;10.60;99.90;;;;;;4976573;28;20700;-83
2021/11/17 15:02:05;;;;;;;3.50;0.63;;;10.60;99.90;;;;;;4992599;28;20623;-85
2021/11/17 15:04:37;;;;;;;2.20;0.80;;;10.60;99.90;;;;;;4991783;28;20250;-85
2021/11/17 15:07:09;;;;;;;0.57;0.47;;;10.70;99.90;;;;;;4973537;28;20195;-83
2021/11/17 15:09:36;;;;;;;1.67;1.27;;;10.60;99.90;;;;;;4993505;28;20230;-84
2021/11/17 15:12:08;;;;;;;14.87;1.07;;;10.60;99.90;;;;;;4972066;28;20227;-84
2021/11/17 15:14:36;;;;;;;5.60;0.93;;;10.60;99.90;;;;;;4999707;28;20224;-84
2021/11/17 15:17:03;;;;;;;6.47;1.00;;;10.50;99.90;;;;;;4978983;28;20223;-83
2021/11/17 15:19:29;;;;;;;1.30;0.90;;;10.50;99.90;;;;;;4994455;28;20237;-82
2021/11/17 15:21:55;;;;;;;0.93;0.47;;;10.50;99.90;;;;;;4991111;28;20509;-83
2021/11/17 15:24:23;;;;;;;2.33;1.03;;;10.50;99.90;;;;;;4976429;28;20195;-84
2021/11/17 15:27:00;;;;;;;2.83;0.40;;;10.50;99.90;;;;;;4988364;28;20230;-84
2021/11/17 15:29:26;;;;;;;0.87;0.50;;;10.50;99.90;;;;;;5007404;28;20257;-83
2021/11/17 15:31:52;;;;;;;4.13;0.87;;;10.50;99.90;;;;;;5001109;28;20334;-85
2021/11/17 15:34:18;;;;;;;0.87;0.70;;;10.50;99.90;;;;;;4997837;28;20648;-85
2021/11/17 15:36:44;;;;;;;2.17;0.50;;;10.50;99.90;;;;;;4995715;28;20188;-85
2021/11/17 15:39:10;;;;;;;2.30;0.70;;;10.30;99.90;;;;;;4996583;28;20219;-84
2021/11/17 15:41:39;;;;;;;1.13;0.47;;;10.30;99.90;;;;;;4995746;28;20225;-85
2021/11/17 15:44:07;;;;;;;6.80;0.30;;;10.20;99.90;;;;;;4996713;28;20231;-85
2021/11/17 15:46:34;;;;;;;0.83;0.47;;;10.00;99.90;;;;;;4996379;28;20305;-84
2021/11/17 15:49:02;;;;;;;1.33;0.60;;;9.90;99.90;;;;;;4980061;28;20203;-84
2021/11/17 15:51:38;;;;;;;0.30;0.30;;;9.80;99.90;;;;;;4981277;28;20207;-83